Řízení letového provozu České republiky
Letiste: LKPD Aktualizace: 18.12.2018 17:00:06  UTC
 METAR LKPD 18.12. 17:00 ...
METAR LKPD 181700Z 10004KT 9999 SCT013 OVC020 02/01 Q1026 NOSIG RMK WHT WHT=
 TAF LKPD 18.12. 11:00 ...
TAF LKPD 181100Z 1812/1912 09006KT 8000 BKN040      TEMPO 1812/1818 VRB02KT 6000 OVC018      BECMG 1820/1822 CAVOK      TEMPO 1903/1908 VRB02KT 3000 MIFG BR=